Time;durP1;ratioP1;P1;durP2;ratioP2;P2;SDS_P1;SDS_P2;PMS_P1;PMS_P2;Temp;Humidity;BMP_temperature;BMP_pressure;BME280_temperature;BME280_humidity;BME280_pressure;Samples;Min_cycle;Max_cycle;Signal;HPM_P1;HPM_P2
2023/03/21 00:01:53;;;;;;;;;;;19.70;84.70;;;;;;5116305;28;19922;-52
2023/03/21 00:04:19;;;;;;;;;;;19.70;84.70;;;;;;5117208;28;19960;-55
2023/03/21 00:06:45;;;;;;;;;;;19.70;84.50;;;;;;5117137;28;20010;-52
2023/03/21 00:09:11;;;;;;;;;;;19.90;84.30;;;;;;5116747;28;20354;-54
2023/03/21 00:11:36;;;;;;;;;;;20.00;83.90;;;;;;5115810;28;19969;-54
2023/03/21 00:14:02;;;;;;;;;;;20.10;83.50;;;;;;5116681;28;19915;-56
2023/03/21 00:16:34;;;;;;;;;;;20.20;83.30;;;;;;5116553;28;20277;-56
2023/03/21 00:19:02;;;;;;;;;;;20.20;83.20;;;;;;5116959;28;19998;-53
2023/03/21 00:21:31;;;;;;;;;;;20.20;83.20;;;;;;5117146;28;19914;-56
2023/03/21 00:23:57;;;;;;;;;;;20.20;83.20;;;;;;5115847;28;19918;-56
2023/03/21 00:26:22;;;;;;;;;;;20.10;83.30;;;;;;5116422;28;19912;-55
2023/03/21 00:28:49;;;;;;;;;;;20.10;83.40;;;;;;5116751;28;20365;-52
2023/03/21 00:31:14;;;;;;;;;;;20.00;83.50;;;;;;5114986;28;19972;-54
2023/03/21 00:33:40;;;;;;;;;;;20.00;83.70;;;;;;5115577;28;19916;-56
2023/03/21 00:36:06;;;;;;;;;;;20.00;83.80;;;;;;5116559;28;19973;-54
2023/03/21 00:38:32;;;;;;;;;;;19.90;83.90;;;;;;5116181;28;19965;-56
2023/03/21 00:40:58;;;;;;;;;;;19.80;84.00;;;;;;5115339;28;19920;-56
2023/03/21 00:43:28;;;;;;;;;;;19.80;84.10;;;;;;5116782;28;20275;-56
2023/03/21 00:45:55;;;;;;;;;;;19.80;84.20;;;;;;5116110;28;20274;-51
2023/03/21 00:48:20;;;;;;;;;;;19.80;84.30;;;;;;5116008;28;19962;-53
2023/03/21 00:50:46;;;;;;;;;;;19.70;84.30;;;;;;5115353;28;19965;-52
2023/03/21 00:53:12;;;;;;;;;;;19.70;84.40;;;;;;5115824;28;19912;-55
2023/03/21 00:55:38;;;;;;;;;;;19.70;84.50;;;;;;5116042;28;20014;-53
2023/03/21 00:58:04;;;;;;;;;;;19.70;84.60;;;;;;5116158;28;20006;-53
2023/03/21 01:00:31;;;;;;;;;;;19.70;84.60;;;;;;5115962;28;19998;-54
2023/03/21 01:02:57;;;;;;;;;;;19.70;84.50;;;;;;5115148;28;19974;-56
2023/03/21 01:06:03;;;;;;;;;;;19.80;84.40;;;;;;5116001;28;19936;-56
2023/03/21 01:08:11;;;;;;;;;;;19.90;84.20;;;;;;5115461;28;19907;-53
2023/03/21 01:10:37;;;;;;;;;;;20.00;83.80;;;;;;5115707;28;19940;-54
2023/03/21 01:13:02;;;;;;;;;;;20.10;83.50;;;;;;5114892;28;20333;-52
2023/03/21 01:15:28;;;;;;;;;;;20.10;83.40;;;;;;5115734;28;19908;-56
2023/03/21 01:17:53;;;;;;;;;;;20.10;83.40;;;;;;5115760;28;20282;-55
2023/03/21 01:20:19;;;;;;;;;;;20.10;83.40;;;;;;5115398;28;19990;-51
2023/03/21 01:22:44;;;;;;;;;;;20.10;83.40;;;;;;5114624;28;19923;-55
2023/03/21 01:25:09;;;;;;;;;;;20.10;83.50;;;;;;5115297;28;19977;-53
2023/03/21 01:27:35;;;;;;;;;;;20.00;83.50;;;;;;5115852;28;19908;-55
2023/03/21 01:30:01;;;;;;;;;;;20.00;83.70;;;;;;5114104;28;19916;-54
2023/03/21 01:32:26;;;;;;;;;;;19.90;83.80;;;;;;5115246;28;19912;-56
2023/03/21 01:34:52;;;;;;;;;;;19.90;83.90;;;;;;5115210;28;19930;-55
2023/03/21 01:37:18;;;;;;;;;;;19.80;84.00;;;;;;5096704;28;19908;-54
2023/03/21 01:39:44;;;;;;;;;;;19.80;84.20;;;;;;5114639;28;19911;-55
2023/03/21 01:42:13;;;;;;;;;;;19.70;84.20;;;;;;5114602;28;20334;-56
2023/03/21 01:44:58;;;;;;;;;;;19.70;84.30;;;;;;5113440;28;19911;-56
2023/03/21 01:47:24;;;;;;;;;;;19.70;84.40;;;;;;5115137;28;19912;-54
2023/03/21 01:49:51;;;;;;;;;;;19.60;84.50;;;;;;5114748;28;19918;-55
2023/03/21 01:52:18;;;;;;;;;;;19.60;84.60;;;;;;5113913;28;19915;-52
2023/03/21 01:54:45;;;;;;;;;;;19.60;84.60;;;;;;5114797;28;20007;-55
2023/03/21 01:57:15;;;;;;;;;;;19.60;84.60;;;;;;5115458;28;20358;-54
2023/03/21 01:59:45;;;;;;;;;;;19.60;84.40;;;;;;5114743;28;19911;-53
2023/03/21 02:02:13;;;;;;;;;;;19.70;84.30;;;;;;5113757;28;19918;-53
2023/03/21 02:04:39;;;;;;;;;;;19.90;84.10;;;;;;5114651;28;20278;-54
2023/03/21 02:07:10;;;;;;;;;;;20.00;83.70;;;;;;5114608;28;19919;-54
2023/03/21 02:09:36;;;;;;;;;;;20.20;83.30;;;;;;5114454;28;19994;-53
2023/03/21 02:12:02;;;;;;;;;;;20.20;83.10;;;;;;5113572;28;19915;-55
2023/03/21 02:14:30;;;;;;;;;;;20.20;83.00;;;;;;5114714;28;19907;-55
2023/03/21 02:17:02;;;;;;;;;;;20.20;83.00;;;;;;5114477;28;20001;-55
2023/03/21 02:19:28;;;;;;;;;;;20.20;83.00;;;;;;5114423;28;19907;-56
2023/03/21 02:21:59;;;;;;;;;;;20.10;83.10;;;;;;5113597;28;19919;-54
2023/03/21 02:24:43;;;;;;;;;;;20.10;83.20;;;;;;5114699;28;20002;-56
2023/03/21 02:27:11;;;;;;;;;;;20.00;83.30;;;;;;5114943;28;20369;-54
2023/03/21 02:29:46;;;;;;;;;;;20.00;83.50;;;;;;5113220;28;19919;-55
2023/03/21 02:32:14;;;;;;;;;;;20.00;83.60;;;;;;5114545;28;19916;-55
2023/03/21 02:34:43;;;;;;;;;;;19.90;83.70;;;;;;5114564;28;19908;-54
2023/03/21 02:37:17;;;;;;;;;;;19.90;83.80;;;;;;5114588;28;20291;-55
2023/03/21 02:39:55;;;;;;;;;;;19.80;84.40;;;;;;5113186;28;19915;-55
2023/03/21 02:42:35;;;;;;;;;;;19.80;84.00;;;;;;5113483;28;20002;-54
2023/03/21 02:45:07;;;;;;;;;;;19.70;84.10;;;;;;5114111;28;19908;-55
2023/03/21 02:47:33;;;;;;;;;;;19.70;84.20;;;;;;5114299;28;19908;-53
2023/03/21 02:50:02;;;;;;;;;;;19.70;84.40;;;;;;5118051;28;19911;-55
2023/03/21 02:52:29;;;;;;;;;;;19.60;84.40;;;;;;5118577;28;19912;-55
2023/03/21 02:54:55;;;;;;;;;;;19.60;84.40;;;;;;5118509;28;19998;-56
2023/03/21 02:57:21;;;;;;;;;;;19.60;84.40;;;;;;5118522;28;19954;-55
2023/03/21 02:59:48;;;;;;;;;;;19.70;84.40;;;;;;5118368;28;19912;-55
2023/03/21 03:02:14;;;;;;;;;;;19.80;84.20;;;;;;5117831;28;19911;-55
2023/03/21 03:04:40;;;;;;;;;;;19.90;84.00;;;;;;5118099;28;20418;-52
2023/03/21 03:07:23;;;;;;;;;;;20.10;83.50;;;;;;5118362;28;19951;-56
2023/03/21 03:09:48;;;;;;;;;;;20.20;83.20;;;;;;5118303;28;19919;-53
2023/03/21 03:12:33;;;;;;;;;;;20.30;82.90;;;;;;5116310;28;20079;-55
2023/03/21 03:15:16;;;;;;;;;;;20.30;82.80;;;;;;5115259;28;20393;-52
2023/03/21 03:17:48;;;;;;;;;;;20.20;82.80;;;;;;5097738;28;20007;-55
2023/03/21 03:20:32;;;;;;;;;;;20.20;82.80;;;;;;5097392;28;19961;-56
2023/03/21 03:23:02;;;;;;;;;;;20.20;83.00;;;;;;5114975;28;20343;-56
2023/03/21 03:25:31;;;;;;;;;;;20.10;83.10;;;;;;5118294;28;20347;-56
2023/03/21 03:27:57;;;;;;;;;;;20.00;83.20;;;;;;5117786;28;19908;-53
2023/03/21 03:30:24;;;;;;;;;;;20.00;83.40;;;;;;5116596;28;19960;-54
2023/03/21 03:32:58;;;;;;;;;;;19.90;83.50;;;;;;5117958;28;19919;-55
2023/03/21 03:35:24;;;;;;;;;;;19.90;84.10;;;;;;5117818;28;19908;-55
2023/03/21 03:37:52;;;;;;;;;;;19.80;83.70;;;;;;5117766;28;19908;-52
2023/03/21 03:40:22;;;;;;;;;;;19.80;83.80;;;;;;5116085;28;20266;-55
2023/03/21 03:42:52;;;;;;;;;;;19.80;83.90;;;;;;5116240;28;19933;-55
2023/03/21 03:45:19;;;;;;;;;;;19.70;84.00;;;;;;5116314;28;19951;-55
2023/03/21 03:47:47;;;;;;;;;;;19.70;84.10;;;;;;5115920;28;19932;-50
2023/03/21 03:50:15;;;;;;;;;;;19.70;84.30;;;;;;5115286;28;19916;-55
2023/03/21 03:52:51;;;;;;;;;;;19.60;84.30;;;;;;5115916;28;19919;-52
2023/03/21 03:55:20;;;;;;;;;;;19.60;84.50;;;;;;5116143;28;20318;-55
2023/03/21 03:57:46;;;;;;;;;;;19.60;84.50;;;;;;5115781;28;19907;-56
2023/03/21 04:00:12;;;;;;;;;;;19.60;84.40;;;;;;5114919;28;21534;-52
2023/03/21 04:02:37;;;;;;;;;;;19.70;84.40;;;;;;5115985;28;19912;-53
2023/03/21 04:05:04;;;;;;;;;;;19.80;84.10;;;;;;5116334;28;20285;-55
2023/03/21 04:07:30;;;;;;;;;;;20.00;83.60;;;;;;5115967;28;19908;-53
2023/03/21 04:09:55;;;;;;;;;;;20.20;82.90;;;;;;5115831;28;19912;-54
2023/03/21 04:12:21;;;;;;;;;;;20.50;82.40;;;;;;5115378;28;20312;-53
2023/03/21 04:14:47;;;;;;;;;;;20.50;82.00;;;;;;5115748;28;19908;-51
2023/03/21 04:17:13;;;;;;;;;;;20.60;81.90;;;;;;5115841;28;19908;-55
2023/03/21 04:19:39;;;;;;;;;;;20.50;81.90;;;;;;5115443;28;19911;-52
2023/03/21 04:22:04;;;;;;;;;;;20.50;82.00;;;;;;5114598;28;19916;-55
2023/03/21 04:24:32;;;;;;;;;;;20.40;82.10;;;;;;5115422;28;20350;-55
2023/03/21 04:26:58;;;;;;;;;;;20.40;82.30;;;;;;5115365;28;19953;-53
2023/03/21 04:29:24;;;;;;;;;;;20.30;82.50;;;;;;5114484;28;19912;-52
2023/03/21 04:31:49;;;;;;;;;;;20.20;82.70;;;;;;5115480;28;20052;-57
2023/03/21 04:34:15;;;;;;;;;;;20.10;82.80;;;;;;5114423;28;19923;-52
2023/03/21 04:36:48;;;;;;;;;;;20.10;83.00;;;;;;5115491;28;19908;-52
2023/03/21 04:39:14;;;;;;;;;;;20.10;83.20;;;;;;5115521;28;19907;-53
2023/03/21 04:41:40;;;;;;;;;;;20.00;83.30;;;;;;5052556;28;1768546;-52
2023/03/21 04:44:05;;;;;;;;;;;19.90;83.40;;;;;;5115654;28;19932;-54
2023/03/21 04:46:32;;;;;;;;;;;19.90;83.50;;;;;;5116123;28;19908;-53
2023/03/21 04:48:58;;;;;;;;;;;19.80;83.60;;;;;;5116318;28;19933;-54
2023/03/21 04:51:23;;;;;;;;;;;19.80;83.80;;;;;;5116262;28;19911;-53
2023/03/21 04:53:51;;;;;;;;;;;19.70;83.90;;;;;;5116238;28;19912;-57
2023/03/21 04:56:16;;;;;;;;;;;19.70;83.90;;;;;;5115086;28;19912;-54
2023/03/21 04:58:42;;;;;;;;;;;19.70;84.00;;;;;;5115806;28;20037;-55
2023/03/21 05:01:08;;;;;;;;;;;19.70;84.00;;;;;;5116069;28;19908;-52
2023/03/21 05:03:38;;;;;;;;;;;19.70;83.90;;;;;;5115751;28;19907;-55
2023/03/21 05:06:05;;;;;;;;;;;19.80;83.80;;;;;;5115063;28;19919;-54
2023/03/21 05:08:31;;;;;;;;;;;20.00;83.50;;;;;;5115983;28;20010;-54
2023/03/21 05:10:56;;;;;;;;;;;20.20;83.10;;;;;;5114973;28;20389;-53
2023/03/21 05:13:22;;;;;;;;;;;20.30;82.40;;;;;;5115397;28;19957;-52
2023/03/21 05:15:47;;;;;;;;;;;20.40;82.10;;;;;;5114912;28;19912;-53
2023/03/21 05:18:13;;;;;;;;;;;20.40;82.00;;;;;;5115367;28;19999;-54
2023/03/21 05:20:42;;;;;;;;;;;20.40;82.00;;;;;;5113886;28;19912;-54
2023/03/21 05:23:11;;;;;;;;;;;20.40;82.10;;;;;;5115422;28;19942;-51
2023/03/21 05:25:38;;;;;;;;;;;20.30;82.20;;;;;;5115033;28;19915;-54
2023/03/21 05:28:04;;;;;;;;;;;20.30;82.40;;;;;;5115249;28;19933;-55
2023/03/21 05:30:30;;;;;;;;;;;20.20;82.60;;;;;;5112848;28;19983;-53
2023/03/21 05:32:56;;;;;;;;;;;20.10;82.90;;;;;;5115296;28;20391;-55
2023/03/21 05:35:21;;;;;;;;;;;20.10;82.80;;;;;;5097049;28;19915;-55
2023/03/21 05:37:47;;;;;;;;;;;20.00;83.00;;;;;;5115233;28;20347;-55
2023/03/21 05:40:12;;;;;;;;;;;20.00;83.10;;;;;;5113057;28;20388;-51
2023/03/21 05:42:38;;;;;;;;;;;19.90;83.20;;;;;;5112924;28;19911;-53
2023/03/21 05:45:04;;;;;;;;;;;19.90;83.40;;;;;;5114824;28;20415;-54
2023/03/21 05:47:30;;;;;;;;;;;19.80;83.50;;;;;;5115210;28;19953;-54
2023/03/21 05:49:55;;;;;;;;;;;19.80;83.60;;;;;;5114954;28;19912;-51
2023/03/21 05:52:21;;;;;;;;;;;19.80;83.80;;;;;;5114119;28;19938;-54
2023/03/21 05:54:46;;;;;;;;;;;19.70;83.80;;;;;;5114977;28;19920;-55
2023/03/21 05:57:12;;;;;;;;;;;19.70;83.90;;;;;;5114388;28;19908;-50
2023/03/21 05:59:37;;;;;;;;;;;19.70;84.00;;;;;;5114664;28;19933;-54
2023/03/21 06:02:03;;;;;;;;;;;19.60;84.00;;;;;;5112927;28;19962;-52
2023/03/21 06:04:29;;;;;;;;;;;19.60;84.00;;;;;;5113843;28;19912;-54
2023/03/21 06:06:54;;;;;;;;;;;19.60;84.10;;;;;;5114310;28;19918;-53
2023/03/21 06:09:21;;;;;;;;;;;19.70;84.20;;;;;;5114202;28;19907;-53
2023/03/21 06:11:47;;;;;;;;;;;19.70;84.10;;;;;;5113844;28;19916;-54
2023/03/21 06:14:13;;;;;;;;;;;19.70;83.90;;;;;;5112574;28;19941;-52
2023/03/21 06:16:38;;;;;;;;;;;19.90;83.60;;;;;;5113484;28;19912;-55
2023/03/21 06:19:04;;;;;;;;;;;20.10;83.10;;;;;;5096258;28;20358;-54
2023/03/21 06:21:29;;;;;;;;;;;20.30;82.50;;;;;;5114402;28;19961;-53
2023/03/21 06:23:55;;;;;;;;;;;20.40;82.20;;;;;;5113582;28;20346;-55
2023/03/21 06:26:22;;;;;;;;;;;20.40;82.10;;;;;;5113670;28;19931;-53
2023/03/21 06:28:48;;;;;;;;;;;20.40;82.10;;;;;;5114385;28;20309;-53
2023/03/21 06:31:13;;;;;;;;;;;20.40;82.10;;;;;;5114196;28;19919;-55
2023/03/21 06:33:39;;;;;;;;;;;20.40;82.30;;;;;;5114103;28;19912;-53
2023/03/21 06:36:04;;;;;;;;;;;20.30;82.40;;;;;;5113387;28;20007;-54
2023/03/21 06:38:30;;;;;;;;;;;20.20;82.50;;;;;;5114152;28;20294;-55
2023/03/21 06:40:56;;;;;;;;;;;20.10;82.60;;;;;;5114191;28;20389;-55
2023/03/21 06:43:22;;;;;;;;;;;20.10;82.80;;;;;;5114126;28;19908;-55
2023/03/21 06:45:47;;;;;;;;;;;20.00;82.90;;;;;;5113270;28;19919;-55
2023/03/21 06:48:13;;;;;;;;;;;20.00;83.10;;;;;;5113932;28;19915;-55
2023/03/21 06:50:39;;;;;;;;;;;19.90;83.20;;;;;;5114189;28;19911;-55
2023/03/21 06:53:05;;;;;;;;;;;19.90;83.40;;;;;;5113631;28;19916;-54
2023/03/21 06:55:30;;;;;;;;;;;19.90;83.40;;;;;;5112266;28;19972;-54
2023/03/21 06:57:56;;;;;;;;;;;19.80;83.60;;;;;;5113841;28;19908;-55
2023/03/21 07:00:22;;;;;;;;;;;19.80;83.80;;;;;;5095886;28;19908;-54
2023/03/21 07:02:48;;;;;;;;;;;19.70;83.80;;;;;;5113947;28;19930;-55
2023/03/21 07:05:14;;;;;;;;;;;19.70;83.90;;;;;;5113665;28;19908;-52
2023/03/21 07:07:39;;;;;;;;;;;19.60;84.00;;;;;;5112964;28;19956;-55
2023/03/21 07:10:06;;;;;;;;;;;19.60;84.10;;;;;;5113819;28;20013;-55
2023/03/21 07:12:33;;;;;;;;;;;19.70;84.10;;;;;;5113663;28;19919;-54
2023/03/21 07:14:59;;;;;;;;;;;19.70;83.90;;;;;;5113908;28;19914;-55
2023/03/21 07:17:24;;;;;;;;;;;19.80;83.70;;;;;;5112680;28;19988;-55
2023/03/21 07:19:50;;;;;;;;;;;20.00;83.40;;;;;;5113380;28;19912;-54
2023/03/21 07:22:15;;;;;;;;;;;20.10;83.00;;;;;;5113490;28;19995;-55
2023/03/21 07:24:41;;;;;;;;;;;20.30;82.60;;;;;;5112284;28;19919;-53
2023/03/21 07:27:06;;;;;;;;;;;20.30;82.30;;;;;;5113740;28;19947;-53
2023/03/21 07:29:31;;;;;;;;;;;20.30;82.20;;;;;;5113409;28;20376;-54
2023/03/21 07:31:57;;;;;;;;;;;20.30;82.20;;;;;;5113400;28;20014;-54
2023/03/21 07:34:23;;;;;;;;;;;20.30;82.30;;;;;;5113952;28;19911;-55
2023/03/21 07:36:48;;;;;;;;;;;20.30;82.50;;;;;;5117464;28;19908;-54
2023/03/21 07:39:13;;;;;;;;;;;20.20;82.50;;;;;;5117019;28;19907;-53
2023/03/21 07:41:39;;;;;;;;;;;20.10;82.60;;;;;;5117388;28;19926;-56
2023/03/21 07:44:04;;;;;;;;;;;20.10;82.80;;;;;;5098999;28;19915;-55
2023/03/21 07:46:30;;;;;;;;;;;20.00;82.90;;;;;;5116440;28;19912;-53
2023/03/21 07:48:55;;;;;;;;;;;20.00;83.10;;;;;;5116939;28;19915;-54
2023/03/21 07:51:21;;;;;;;;;;;19.90;83.20;;;;;;5117294;28;20247;-53
2023/03/21 07:53:47;;;;;;;;;;;19.80;83.30;;;;;;5117058;28;19923;-53
2023/03/21 07:56:13;;;;;;;;;;;19.80;83.50;;;;;;5116236;28;19919;-54
2023/03/21 07:58:38;;;;;;;;;;;19.80;83.60;;;;;;5116928;28;19907;-53
2023/03/21 08:01:04;;;;;;;;;;;19.80;83.70;;;;;;5116908;28;19912;-53
2023/03/21 08:03:31;;;;;;;;;;;19.70;83.70;;;;;;5116697;28;20316;-53
2023/03/21 08:06:00;;;;;;;;;;;19.80;83.70;;;;;;5115478;28;19919;-53
2023/03/21 08:08:26;;;;;;;;;;;19.80;83.60;;;;;;5116372;28;20358;-54
2023/03/21 08:10:51;;;;;;;;;;;19.90;83.50;;;;;;5116546;28;19918;-55
2023/03/21 08:13:17;;;;;;;;;;;20.00;83.20;;;;;;5116820;28;19912;-51
2023/03/21 08:15:42;;;;;;;;;;;20.10;82.80;;;;;;5115231;28;19914;-53
2023/03/21 08:18:08;;;;;;;;;;;20.30;82.50;;;;;;5116597;28;20274;-55
2023/03/21 08:20:34;;;;;;;;;;;20.40;82.30;;;;;;5116732;28;20403;-53
2023/03/21 08:23:00;;;;;;;;;;;20.40;82.00;;;;;;5116413;28;19937;-55
2023/03/21 08:25:25;;;;;;;;;;;20.40;81.90;;;;;;5115818;28;19916;-54
2023/03/21 08:27:51;;;;;;;;;;;20.40;82.00;;;;;;5116365;28;20362;-55
2023/03/21 08:30:18;;;;;;;;;;;20.40;82.10;;;;;;5116503;28;20346;-50
2023/03/21 08:32:44;;;;;;;;;;;20.30;82.20;;;;;;5116298;28;19912;-51
2023/03/21 08:35:10;;;;;;;;;;;20.30;82.20;;;;;;5115123;28;19964;-55
2023/03/21 08:37:36;;;;;;;;;;;20.20;82.40;;;;;;5116364;28;19912;-55
2023/03/21 08:40:10;;;;;;;;;;;20.20;82.60;;;;;;5115368;28;20396;-53
2023/03/21 08:42:39;;;;;;;;;;;20.00;82.70;;;;;;5115475;28;19924;-56
2023/03/21 08:45:05;;;;;;;;;;;20.00;82.90;;;;;;5113938;28;20077;-51
2023/03/21 08:47:30;;;;;;;;;;;20.00;83.10;;;;;;5115500;28;19931;-55
2023/03/21 08:49:56;;;;;;;;;;;19.90;83.20;;;;;;5115497;28;20354;-52
2023/03/21 08:52:22;;;;;;;;;;;19.90;83.40;;;;;;5115904;28;19954;-55
2023/03/21 08:54:47;;;;;;;;;;;19.80;83.40;;;;;;5115714;28;19919;-55
2023/03/21 08:57:13;;;;;;;;;;;19.80;83.40;;;;;;5115036;28;19911;-53
2023/03/21 08:59:39;;;;;;;;;;;19.90;83.40;;;;;;5115513;28;19919;-56
2023/03/21 09:02:05;;;;;;;;;;;19.90;83.40;;;;;;5115516;28;19912;-54
2023/03/21 09:04:30;;;;;;;;;;;20.00;83.20;;;;;;5115620;28;19907;-54
2023/03/21 09:06:56;;;;;;;;;;;20.10;83.00;;;;;;5114500;28;19957;-55
2023/03/21 09:09:21;;;;;;;;;;;20.10;82.80;;;;;;5115745;28;19907;-54
2023/03/21 09:11:47;;;;;;;;;;;20.30;82.60;;;;;;5115325;28;20350;-54
2023/03/21 09:14:12;;;;;;;;;;;20.30;82.40;;;;;;5115632;28;19938;-53
2023/03/21 09:16:38;;;;;;;;;;;20.30;82.40;;;;;;5114647;28;19912;-53
2023/03/21 09:19:07;;;;;;;;;;;20.20;82.50;;;;;;5115371;28;19908;-52
2023/03/21 09:21:33;;;;;;;;;;;20.20;82.60;;;;;;5115476;28;19908;-52
2023/03/21 09:24:01;;;;;;;;;;;20.20;82.70;;;;;;5114286;28;20414;-56
2023/03/21 09:26:27;;;;;;;;;;;20.10;82.70;;;;;;5115383;28;19912;-56
2023/03/21 09:28:57;;;;;;;;;;;20.10;82.90;;;;;;5114799;28;19916;-55
2023/03/21 09:31:23;;;;;;;;;;;20.10;83.00;;;;;;5115092;28;19918;-56
2023/03/21 09:33:50;;;;;;;;;;;20.00;83.10;;;;;;5113900;28;19915;-55
2023/03/21 09:36:17;;;;;;;;;;;20.00;83.20;;;;;;5114198;28;20377;-54
2023/03/21 09:38:44;;;;;;;;;;;19.90;83.40;;;;;;5115251;28;19969;-56
2023/03/21 09:41:09;;;;;;;;;;;19.80;83.40;;;;;;5115040;28;19923;-53
2023/03/21 09:43:36;;;;;;;;;;;19.80;83.60;;;;;;5115344;28;19972;-54
2023/03/21 09:46:09;;;;;;;;;;;19.80;83.70;;;;;;5113974;28;20343;-56
2023/03/21 09:49:08;;;;;;;;;;;19.80;84.30;;;;;;5114936;28;19911;-55
2023/03/21 09:51:44;;;;;;;;;;;19.70;83.90;;;;;;5059187;28;19923;-54
2023/03/21 09:54:19;;;;;;;;;;;19.70;83.90;;;;;;5095647;28;20006;-54
2023/03/21 09:56:46;;;;;;;;;;;19.70;84.00;;;;;;5114025;28;20354;-52
2023/03/21 09:59:21;;;;;;;;;;;19.70;84.00;;;;;;5114838;28;20240;-55
2023/03/21 10:01:47;;;;;;;;;;;19.70;84.00;;;;;;5114604;28;19964;-55
2023/03/21 10:04:16;;;;;;;;;;;19.80;83.90;;;;;;5114548;28;20366;-55
2023/03/21 10:06:44;;;;;;;;;;;19.90;83.70;;;;;;5111077;28;20393;-51
2023/03/21 10:09:13;;;;;;;;;;;20.10;83.20;;;;;;5112938;28;20372;-51
2023/03/21 10:11:43;;;;;;;;;;;20.40;82.60;;;;;;5113906;28;20282;-54
2023/03/21 10:14:15;;;;;;;;;;;20.50;82.00;;;;;;5114243;28;19912;-54
2023/03/21 10:16:43;;;;;;;;;;;20.60;81.70;;;;;;5114497;28;19915;-53
2023/03/21 10:19:13;;;;;;;;;;;20.60;81.60;;;;;;5114252;28;19912;-54
2023/03/21 10:21:44;;;;;;;;;;;20.60;81.60;;;;;;5112197;28;20367;-53
2023/03/21 10:24:11;;;;;;;;;;;20.60;81.70;;;;;;5114353;28;19908;-53
2023/03/21 10:26:37;;;;;;;;;;;20.50;81.80;;;;;;5114377;28;19907;-55
2023/03/21 10:29:02;;;;;;;;;;;20.40;81.90;;;;;;5114104;28;20385;-54
2023/03/21 10:31:29;;;;;;;;;;;20.40;82.30;;;;;;5113071;28;19916;-55
2023/03/21 10:33:56;;;;;;;;;;;20.30;82.40;;;;;;5113595;28;19919;-54
2023/03/21 10:36:24;;;;;;;;;;;20.20;83.10;;;;;;5114621;28;19911;-54
2023/03/21 10:38:55;;;;;;;;;;;20.20;82.70;;;;;;5096402;28;20323;-53
2023/03/21 10:41:20;;;;;;;;;;;20.10;82.90;;;;;;5112947;28;19920;-55
2023/03/21 10:44:02;;;;;;;;;;;20.00;83.00;;;;;;5114140;28;19918;-52
2023/03/21 10:46:27;;;;;;;;;;;20.00;83.10;;;;;;5114273;28;20374;-54
2023/03/21 10:48:53;;;;;;;;;;;20.00;83.30;;;;;;5114223;28;19962;-53
2023/03/21 10:51:20;;;;;;;;;;;20.00;83.30;;;;;;5113428;28;19916;-56
2023/03/21 10:53:50;;;;;;;;;;;19.90;83.40;;;;;;5114162;28;19912;-56
2023/03/21 10:56:16;;;;;;;;;;;19.90;83.50;;;;;;5113999;28;19915;-55
2023/03/21 10:58:44;;;;;;;;;;;19.80;83.60;;;;;;5096013;28;19908;-54
2023/03/21 11:01:13;;;;;;;;;;;19.80;83.70;;;;;;5094972;28;19908;-55
2023/03/21 11:03:45;;;;;;;;;;;19.80;83.70;;;;;;5114199;28;20408;-56
2023/03/21 11:06:11;;;;;;;;;;;19.90;83.70;;;;;;5113997;28;19908;-53
2023/03/21 11:08:37;;;;;;;;;;;19.90;83.50;;;;;;5113675;28;19915;-55
2023/03/21 11:11:07;;;;;;;;;;;20.00;83.40;;;;;;5117902;28;19998;-54
2023/03/21 11:13:36;;;;;;;;;;;20.10;83.00;;;;;;5117099;28;19922;-56
2023/03/21 11:16:07;;;;;;;;;;;20.30;82.80;;;;;;5117877;28;19907;-54
2023/03/21 11:18:37;;;;;;;;;;;20.40;82.50;;;;;;5117780;28;19912;-55
2023/03/21 11:21:05;;;;;;;;;;;20.30;82.40;;;;;;5116309;28;19912;-56
2023/03/21 11:23:32;;;;;;;;;;;20.40;82.40;;;;;;5099435;28;19907;-55
2023/03/21 11:25:59;;;;;;;;;;;20.40;82.40;;;;;;5117680;28;19914;-55
2023/03/21 11:28:32;;;;;;;;;;;20.30;82.50;;;;;;5117245;28;19911;-54
2023/03/21 11:30:58;;;;;;;;;;;20.30;82.60;;;;;;5098566;28;19955;-54
2023/03/21 11:33:26;;;;;;;;;;;20.20;82.70;;;;;;5117901;28;19919;-56
2023/03/21 11:36:05;;;;;;;;;;;20.20;82.80;;;;;;5117251;28;19915;-52
2023/03/21 11:38:34;;;;;;;;;;;20.20;82.90;;;;;;5117767;28;19908;-55
2023/03/21 11:41:01;;;;;;;;;;;20.10;83.00;;;;;;5115874;28;20017;-55
2023/03/21 11:43:29;;;;;;;;;;;20.00;83.10;;;;;;5117032;28;19919;-52
2023/03/21 11:45:59;;;;;;;;;;;20.00;83.30;;;;;;5117090;28;19912;-55
2023/03/21 11:48:25;;;;;;;;;;;20.00;83.40;;;;;;5116965;28;20251;-53
2023/03/21 11:50:55;;;;;;;;;;;19.90;83.50;;;;;;5116525;28;19922;-55
2023/03/21 11:53:42;;;;;;;;;;;19.90;83.60;;;;;;5116923;28;20354;-56
2023/03/21 11:56:31;;;;;;;;;;;19.80;83.70;;;;;;5116911;28;19961;-52
2023/03/21 11:58:56;;;;;;;;;;;19.80;83.80;;;;;;5103486;28;19914;-54
2023/03/21 12:01:37;;;;;;;;;;;19.80;83.80;;;;;;5116103;28;20018;-56
2023/03/21 12:04:03;;;;;;;;;;;19.90;83.80;;;;;;5115804;28;20289;-56
2023/03/21 12:06:36;;;;;;;;;;;19.90;83.70;;;;;;5116128;28;19994;-53
2023/03/21 12:09:08;;;;;;;;;;;20.00;83.50;;;;;;5116719;28;19908;-55
2023/03/21 12:11:38;;;;;;;;;;;20.20;83.20;;;;;;5116849;28;20270;-55
2023/03/21 12:14:11;;;;;;;;;;;20.30;82.70;;;;;;5115916;28;19959;-56
2023/03/21 12:16:55;;;;;;;;;;;20.50;82.40;;;;;;5116510;28;19984;-52
2023/03/21 12:19:43;;;;;;;;;;;20.50;82.20;;;;;;5115012;28;19912;-53
2023/03/21 12:22:33;;;;;;;;;;;20.50;82.20;;;;;;5101887;28;19912;-55
2023/03/21 12:25:05;;;;;;;;;;;20.50;82.20;;;;;;5116254;28;19926;-51
2023/03/21 12:27:33;;;;;;;;;;;20.40;82.30;;;;;;5116532;28;19908;-53
2023/03/21 12:30:08;;;;;;;;;;;20.40;82.30;;;;;;5115365;28;19999;-52
2023/03/21 12:32:39;;;;;;;;;;;20.30;82.40;;;;;;5116179;28;19919;-51
2023/03/21 12:35:07;;;;;;;;;;;20.30;82.60;;;;;;5116461;28;19912;-52
2023/03/21 12:37:41;;;;;;;;;;;20.30;82.80;;;;;;5116244;28;19908;-54
2023/03/21 12:40:39;;;;;;;;;;;20.20;82.80;;;;;;5114814;28;20315;-52
2023/03/21 12:43:17;;;;;;;;;;;20.10;83.00;;;;;;5060344;28;19971;-55
2023/03/21 12:45:44;;;;;;;;;;;20.10;83.20;;;;;;5115982;28;19908;-52
2023/03/21 12:48:16;;;;;;;;;;;20.10;83.30;;;;;;5115616;28;20306;-55
2023/03/21 12:50:43;;;;;;;;;;;20.00;83.40;;;;;;5114541;28;19916;-55
2023/03/21 12:53:20;;;;;;;;;;;19.90;83.50;;;;;;5115508;28;19923;-55
2023/03/21 12:55:46;;;;;;;;;;;19.90;83.60;;;;;;5115809;28;19908;-54
2023/03/21 12:58:18;;;;;;;;;;;19.90;83.60;;;;;;5115880;28;20002;-53
2023/03/21 13:01:03;;;;;;;;;;;19.90;83.70;;;;;;5113715;28;19968;-54
2023/03/21 13:03:49;;;;;;;;;;;19.90;83.70;;;;;;5113687;28;19911;-55
2023/03/21 13:06:17;;;;;;;;;;;20.00;83.70;;;;;;5114782;28;19916;-55
2023/03/21 13:08:45;;;;;;;;;;;20.00;83.50;;;;;;5115700;28;19934;-52
2023/03/21 13:11:12;;;;;;;;;;;20.10;83.30;;;;;;5115735;28;20393;-51
2023/03/21 13:13:44;;;;;;;;;;;20.30;82.90;;;;;;5114449;28;19919;-55
2023/03/21 13:16:13;;;;;;;;;;;20.40;82.50;;;;;;5113189;28;19920;-56
2023/03/21 13:18:52;;;;;;;;;;;20.50;82.30;;;;;;5114628;28;19907;-53
2023/03/21 13:21:36;;;;;;;;;;;20.50;82.30;;;;;;5115514;28;19912;-54
2023/03/21 13:24:03;;;;;;;;;;;20.50;82.30;;;;;;5115628;28;20002;-51
2023/03/21 13:26:35;;;;;;;;;;;20.40;82.40;;;;;;5114672;28;19915;-54
2023/03/21 13:29:00;;;;;;;;;;;20.40;82.60;;;;;;5115275;28;19919;-56
2023/03/21 13:31:27;;;;;;;;;;;20.30;82.70;;;;;;5114185;28;19912;-54
2023/03/21 13:33:53;;;;;;;;;;;20.30;82.80;;;;;;5115542;28;19965;-53
2023/03/21 13:36:29;;;;;;;;;;;20.30;82.90;;;;;;5114575;28;19908;-56
2023/03/21 13:39:04;;;;;;;;;;;20.20;83.00;;;;;;5113824;28;19934;-52
2023/03/21 13:41:41;;;;;;;;;;;20.20;83.20;;;;;;5115142;28;19996;-52
2023/03/21 13:44:15;;;;;;;;;;;20.10;83.20;;;;;;5115067;28;19908;-55
2023/03/21 13:46:49;;;;;;;;;;;20.10;83.40;;;;;;5115264;28;19908;-53
2023/03/21 13:49:25;;;;;;;;;;;20.10;83.50;;;;;;5114082;28;19940;-56
2023/03/21 13:51:52;;;;;;;;;;;20.00;83.50;;;;;;5114596;28;19918;-53
2023/03/21 13:54:20;;;;;;;;;;;20.00;83.70;;;;;;5114899;28;19912;-54
2023/03/21 13:56:46;;;;;;;;;;;19.90;83.70;;;;;;5114525;28;19919;-53
2023/03/21 13:59:35;;;;;;;;;;;19.90;83.80;;;;;;5113194;28;19912;-51
2023/03/21 14:02:18;;;;;;;;;;;19.90;83.90;;;;;;5114808;28;19919;-53
2023/03/21 14:04:44;;;;;;;;;;;19.90;83.90;;;;;;5096326;28;19915;-52
2023/03/21 14:07:13;;;;;;;;;;;19.90;83.70;;;;;;5114092;28;19908;-53
2023/03/21 14:09:41;;;;;;;;;;;20.00;83.70;;;;;;5113049;28;20387;-56
2023/03/21 14:12:10;;;;;;;;;;;20.10;83.50;;;;;;5114281;28;19944;-53
2023/03/21 14:15:05;;;;;;;;;;;20.30;83.10;;;;;;5113990;28;20344;-53
2023/03/21 14:17:31;;;;;;;;;;;20.50;82.60;;;;;;5092556;28;19908;-54
2023/03/21 14:20:00;;;;;;;;;;;20.60;82.30;;;;;;5112614;28;19916;-55
2023/03/21 14:22:25;;;;;;;;;;;20.60;82.10;;;;;;5113699;28;19912;-54
2023/03/21 14:24:56;;;;;;;;;;;20.60;82.10;;;;;;5096073;28;19914;-55